createdAt,value
2022-10-24T00:01:23.727Z,101385.81
2022-10-24T00:03:51.552Z,101386.72
2022-10-24T00:06:20.061Z,101389.34
2022-10-24T00:08:48.440Z,101389.44
2022-10-24T00:11:22.398Z,101393.84
2022-10-24T00:13:50.496Z,101392.25
2022-10-24T00:16:18.247Z,101398.28
2022-10-24T00:18:45.774Z,101407.09
2022-10-24T00:21:13.562Z,101405.16
2022-10-24T00:23:41.244Z,101403.53
2022-10-24T00:26:08.893Z,101403.63
2022-10-24T00:28:37.320Z,101407.25
2022-10-24T00:31:05.748Z,101414.38
2022-10-24T00:33:33.656Z,101417.06
2022-10-24T00:36:01.185Z,101431.19
2022-10-24T00:38:28.616Z,101428.63
2022-10-24T00:40:56.596Z,101432.19
2022-10-24T00:43:26.693Z,101429.69
2022-10-24T00:45:56.347Z,101432.47
2022-10-24T00:48:45.560Z,101437.00
2022-10-24T00:51:13.218Z,101440.47
2022-10-24T00:53:51.663Z,101441.34
2022-10-24T00:56:21.596Z,101436.22
2022-10-24T00:58:50.379Z,101435.47
2022-10-24T01:01:17.876Z,101431.06
2022-10-24T01:03:45.780Z,101439.22
2022-10-24T01:06:31.979Z,101443.09
2022-10-24T01:09:05.137Z,101439.91
2022-10-24T01:11:47.470Z,101445.78
2022-10-24T01:14:17.602Z,101443.75
2022-10-24T01:17:22.744Z,101445.88
2022-10-24T01:19:50.400Z,101445.09
2022-10-24T01:22:47.928Z,101439.19
2022-10-24T01:25:44.082Z,101444.53
2022-10-24T01:28:18.757Z,101434.13
2022-10-24T01:30:52.391Z,101439.75
2022-10-24T01:33:38.444Z,101431.28
2022-10-24T01:36:40.326Z,101435.16
2022-10-24T01:39:13.588Z,101435.44
2022-10-24T01:41:43.242Z,101439.66
2022-10-24T01:44:17.554Z,101436.84
2022-10-24T01:46:51.485Z,101432.69
2022-10-24T01:49:23.098Z,101432.91
2022-10-24T01:51:57.548Z,101437.03
2022-10-24T01:54:25.186Z,101434.69
2022-10-24T01:56:52.662Z,101427.53
2022-10-24T01:59:26.102Z,101430.09
2022-10-24T02:01:59.101Z,101435.66
2022-10-24T02:04:29.200Z,101434.22
2022-10-24T02:07:00.430Z,101433.44
2022-10-24T02:09:30.455Z,101436.06
2022-10-24T02:12:00.188Z,101440.50
2022-10-24T02:14:39.979Z,101445.00
2022-10-24T02:17:07.734Z,101440.91
2022-10-24T02:19:36.652Z,101444.53
2022-10-24T02:22:49.790Z,101448.91
2022-10-24T02:25:25.327Z,101449.47
2022-10-24T02:28:03.135Z,101449.28
2022-10-24T02:30:35.699Z,101457.00
2022-10-24T02:33:03.516Z,101455.72
2022-10-24T02:35:34.339Z,101454.84
2022-10-24T02:38:08.960Z,101460.78
2022-10-24T02:40:37.127Z,101466.22
2022-10-24T02:43:06.433Z,101469.88
2022-10-24T02:45:36.323Z,101471.59
2022-10-24T02:48:08.780Z,101476.22
2022-10-24T02:50:38.670Z,101466.97
2022-10-24T02:53:08.592Z,101476.28
2022-10-24T02:55:36.259Z,101481.09
2022-10-24T02:58:03.785Z,101491.03
2022-10-24T03:00:31.236Z,101487.38
2022-10-24T03:02:58.772Z,101483.59
2022-10-24T03:05:26.253Z,101493.84
2022-10-24T03:07:53.758Z,101492.50
2022-10-24T03:10:21.739Z,101490.13
2022-10-24T03:12:49.237Z,101502.47
2022-10-24T03:15:16.825Z,101508.41
2022-10-24T03:17:44.537Z,101502.38
2022-10-24T03:20:12.390Z,101504.78
2022-10-24T03:22:40.053Z,101505.00
2022-10-24T03:25:08.128Z,101506.84
2022-10-24T03:27:35.859Z,101511.16
2022-10-24T03:30:04.090Z,101505.41
2022-10-24T03:32:34.430Z,101504.16
2022-10-24T03:35:02.575Z,101515.66
2022-10-24T03:37:30.308Z,101513.88
2022-10-24T03:39:58.670Z,101513.53
2022-10-24T03:42:26.098Z,101520.72
2022-10-24T03:44:53.541Z,101525.72
2022-10-24T03:47:21.245Z,101525.78
2022-10-24T03:49:48.716Z,101524.88
2022-10-24T03:52:16.166Z,101521.47
2022-10-24T03:54:43.611Z,101527.72
2022-10-24T03:57:11.515Z,101523.28
2022-10-24T03:59:39.292Z,101530.59
2022-10-24T04:02:07.007Z,101525.69
2022-10-24T04:04:34.972Z,101530.84
2022-10-24T04:07:02.648Z,101528.41
2022-10-24T04:09:30.388Z,101528.34
2022-10-24T04:11:58.054Z,101533.72
2022-10-24T04:14:25.754Z,101529.66
2022-10-24T04:16:53.240Z,101536.56
2022-10-24T04:19:20.892Z,101541.72
2022-10-24T04:21:48.797Z,101544.81
2022-10-24T04:24:17.709Z,101541.53
2022-10-24T04:26:45.320Z,101538.03
2022-10-24T04:29:12.773Z,101532.88
2022-10-24T04:31:40.261Z,101532.59
2022-10-24T04:34:07.754Z,101530.31
2022-10-24T04:36:35.702Z,101526.78
2022-10-24T04:39:03.858Z,101531.06
2022-10-24T04:41:31.610Z,101528.44
2022-10-24T04:44:01.777Z,101531.16
2022-10-24T04:46:29.450Z,101535.19
2022-10-24T04:49:00.089Z,101542.22
2022-10-24T04:51:27.628Z,101546.00
2022-10-24T04:53:55.449Z,101547.97
2022-10-24T04:56:25.913Z,101545.47
2022-10-24T04:58:53.758Z,101537.69
2022-10-24T05:01:21.400Z,101539.50
2022-10-24T05:03:48.996Z,101551.72
2022-10-24T05:06:16.926Z,101554.22
2022-10-24T05:08:44.722Z,101564.84
2022-10-24T05:11:12.312Z,101564.06
2022-10-24T05:13:40.084Z,101558.66
2022-10-24T05:16:07.988Z,101550.00
2022-10-24T05:18:35.592Z,101561.47
2022-10-24T05:21:04.329Z,101568.19
2022-10-24T05:23:32.144Z,101568.13
2022-10-24T05:25:59.697Z,101575.97
2022-10-24T05:28:27.469Z,101578.88
2022-10-24T05:30:55.012Z,101576.94
2022-10-24T05:33:23.618Z,101576.72
2022-10-24T05:35:52.717Z,101571.44
2022-10-24T05:38:20.214Z,101573.53
2022-10-24T05:40:49.282Z,101578.88
2022-10-24T05:43:17.654Z,101583.06
2022-10-24T05:45:47.570Z,101575.72
2022-10-24T05:48:15.882Z,101575.22
2022-10-24T05:50:43.494Z,101566.59
2022-10-24T05:53:11.004Z,101582.28
2022-10-24T05:55:38.783Z,101573.81
2022-10-24T05:58:06.306Z,101585.03
2022-10-24T06:00:34.141Z,101584.13
2022-10-24T06:03:01.811Z,101575.44
2022-10-24T06:05:29.542Z,101583.09
2022-10-24T06:07:59.091Z,101579.47
2022-10-24T06:10:26.642Z,101582.84
2022-10-24T06:12:54.115Z,101584.59
2022-10-24T06:15:22.039Z,101590.81
2022-10-24T06:17:50.303Z,101590.19
2022-10-24T06:20:17.868Z,101591.88
2022-10-24T06:22:46.244Z,101590.91
2022-10-24T06:25:14.259Z,101585.81
2022-10-24T06:27:42.043Z,101591.91
2022-10-24T06:30:10.799Z,101595.25
2022-10-24T06:32:42.138Z,101600.28
2022-10-24T06:35:14.760Z,101598.34
2022-10-24T06:37:45.858Z,101590.13
2022-10-24T06:40:16.865Z,101592.72
2022-10-24T06:42:44.719Z,101593.59
2022-10-24T06:45:13.081Z,101593.41
2022-10-24T06:47:40.773Z,101592.47
2022-10-24T06:50:08.595Z,101596.97
2022-10-24T06:52:36.978Z,101599.41
2022-10-24T06:55:04.925Z,101596.97
2022-10-24T06:57:32.483Z,101600.38
2022-10-24T07:00:00.101Z,101596.19
2022-10-24T07:02:27.759Z,101599.81
2022-10-24T07:04:57.964Z,101593.34
2022-10-24T07:07:25.506Z,101604.28
2022-10-24T07:09:57.962Z,101602.53
2022-10-24T07:12:25.944Z,101607.22
2022-10-24T07:14:53.554Z,101599.69
2022-10-24T07:17:21.216Z,101606.44
2022-10-24T07:19:53.909Z,101601.69
2022-10-24T07:22:21.632Z,101604.31
2022-10-24T07:24:56.550Z,101609.47
2022-10-24T07:27:24.560Z,101613.13
2022-10-24T07:29:52.121Z,101616.28
2022-10-24T07:32:20.378Z,101613.47
2022-10-24T07:34:48.188Z,101614.34
2022-10-24T07:37:17.775Z,101614.97
2022-10-24T07:39:46.702Z,101617.84
2022-10-24T07:42:15.442Z,101618.59
2022-10-24T07:44:43.086Z,101622.16
2022-10-24T07:47:12.075Z,101622.56
2022-10-24T07:49:39.898Z,101632.03
2022-10-24T07:52:07.629Z,101627.06
2022-10-24T07:54:37.289Z,101624.69
2022-10-24T07:57:05.751Z,101628.94
2022-10-24T07:59:48.771Z,101630.88
2022-10-24T08:02:17.532Z,101633.13
2022-10-24T08:04:45.390Z,101639.00
2022-10-24T08:07:13.690Z,101641.88
2022-10-24T08:09:44.603Z,101639.00
2022-10-24T08:12:12.982Z,101635.88
2022-10-24T08:14:41.684Z,101642.53
2022-10-24T08:17:09.648Z,101645.66
2022-10-24T08:19:43.826Z,101643.25
2022-10-24T08:22:12.568Z,101652.00
2022-10-24T08:24:40.063Z,101647.78
2022-10-24T08:27:07.521Z,101658.09
2022-10-24T08:29:35.653Z,101655.31
2022-10-24T08:32:03.325Z,101652.22
2022-10-24T08:34:31.040Z,101649.91
2022-10-24T08:36:58.986Z,101651.22
2022-10-24T08:39:27.142Z,101657.84
2022-10-24T08:42:00.289Z,101648.88
2022-10-24T08:44:40.294Z,101647.88
2022-10-24T08:47:32.830Z,101648.97
2022-10-24T08:50:13.619Z,101649.94
2022-10-24T08:52:45.639Z,101651.16
2022-10-24T08:55:30.944Z,101653.44
2022-10-24T08:58:07.351Z,101650.22
2022-10-24T09:00:42.773Z,101655.59
2022-10-24T09:03:17.558Z,101660.06
2022-10-24T09:05:50.975Z,101666.31
2022-10-24T09:08:58.495Z,101659.59
2022-10-24T09:11:38.024Z,101663.22
2022-10-24T09:14:17.434Z,101670.81
2022-10-24T09:16:48.926Z,101662.03
2022-10-24T09:19:23.662Z,101669.81
2022-10-24T09:21:52.931Z,101662.03
2022-10-24T09:24:55.216Z,101666.53
2022-10-24T09:27:29.596Z,101666.41
2022-10-24T09:29:58.891Z,101659.56
2022-10-24T09:32:33.016Z,101666.59
2022-10-24T09:35:18.110Z,101661.19
2022-10-24T09:37:52.291Z,101660.75
2022-10-24T09:40:23.262Z,101655.88
2022-10-24T09:42:56.107Z,101668.09
2022-10-24T09:45:37.410Z,101668.22
2022-10-24T09:48:30.176Z,101668.03
2022-10-24T09:51:00.040Z,101662.81
2022-10-24T09:53:32.228Z,101668.88
2022-10-24T09:56:06.458Z,101662.00
2022-10-24T09:58:34.197Z,101665.34
2022-10-24T10:01:22.892Z,101659.13
2022-10-24T10:04:09.373Z,101666.13
2022-10-24T10:06:44.425Z,101666.72
2022-10-24T10:09:14.872Z,101666.78
2022-10-24T10:11:49.426Z,101673.84
2022-10-24T10:14:28.513Z,101667.13
2022-10-24T10:17:06.931Z,101662.75
2022-10-24T10:19:38.326Z,101662.75
2022-10-24T10:22:29.622Z,101665.22
2022-10-24T10:24:57.759Z,101665.13
2022-10-24T10:27:37.937Z,101664.09
2022-10-24T10:30:11.944Z,101665.22
2022-10-24T10:33:00.845Z,101660.84
2022-10-24T10:35:33.267Z,101661.84
2022-10-24T10:38:22.646Z,101660.13
2022-10-24T10:41:03.730Z,101650.50
2022-10-24T10:43:37.400Z,101658.28
2022-10-24T10:46:25.299Z,101661.84
2022-10-24T10:49:01.765Z,101647.59
2022-10-24T10:51:51.984Z,101645.09
2022-10-24T10:54:53.357Z,101646.78
2022-10-24T10:57:28.877Z,101644.19
2022-10-24T11:00:14.687Z,101645.19
2022-10-24T11:03:19.609Z,101648.03
2022-10-24T11:06:11.754Z,101640.78
2022-10-24T11:09:13.642Z,101646.78
2022-10-24T11:11:45.826Z,101652.88
2022-10-24T11:14:34.131Z,101655.34
2022-10-24T11:17:50.580Z,101642.69
2022-10-24T11:20:51.292Z,101651.69
2022-10-24T11:23:59.692Z,101650.75
2022-10-24T11:26:27.350Z,101645.31
2022-10-24T11:29:50.314Z,101648.16
2022-10-24T11:32:40.503Z,101642.84
2022-10-24T11:35:33.300Z,101644.53
2022-10-24T11:38:04.462Z,101639.06
2022-10-24T11:40:33.637Z,101639.19
2022-10-24T11:43:24.672Z,101640.22
2022-10-24T11:45:59.522Z,101635.75
2022-10-24T11:48:53.393Z,101633.94
2022-10-24T11:51:34.292Z,101626.81
2022-10-24T11:54:18.540Z,101625.91
2022-10-24T11:56:54.122Z,101628.66
2022-10-24T11:59:25.713Z,101629.66
2022-10-24T12:01:56.341Z,101622.25
2022-10-24T12:04:38.662Z,101626.66
2022-10-24T12:07:33.977Z,101628.44
2022-10-24T12:10:01.621Z,101629.31
2022-10-24T12:12:38.322Z,101628.25
2022-10-24T12:15:43.589Z,101616.00
2022-10-24T12:18:20.264Z,101610.72
2022-10-24T12:20:52.219Z,101614.16
2022-10-24T12:23:23.478Z,101615.13
2022-10-24T12:26:19.171Z,101614.44
2022-10-24T12:29:04.964Z,101614.97
2022-10-24T12:31:37.686Z,101608.75
2022-10-24T12:34:18.945Z,101610.66
2022-10-24T12:37:14.265Z,101611.72
2022-10-24T12:39:47.962Z,101601.97
2022-10-24T12:42:17.348Z,101609.84
2022-10-24T12:44:47.650Z,101603.81
2022-10-24T12:47:34.830Z,101601.13
2022-10-24T12:50:21.113Z,101600.56
2022-10-24T12:52:48.910Z,101596.97
2022-10-24T12:55:33.428Z,101604.69
2022-10-24T12:58:28.003Z,101604.69
2022-10-24T13:01:00.362Z,101601.19
2022-10-24T13:03:33.950Z,101602.91
2022-10-24T13:06:20.805Z,101604.69
2022-10-24T13:08:51.107Z,101607.16
2022-10-24T13:11:21.535Z,101602.81
2022-10-24T13:14:07.638Z,101602.19
2022-10-24T13:16:50.835Z,101599.56
2022-10-24T13:19:22.227Z,101591.56
2022-10-24T13:22:02.256Z,101590.59
2022-10-24T13:24:36.852Z,101592.28
2022-10-24T13:27:04.287Z,101590.59
2022-10-24T13:29:31.865Z,101593.38
2022-10-24T13:32:04.986Z,101589.59
2022-10-24T13:34:59.898Z,101589.03
2022-10-24T13:37:30.566Z,101582.19
2022-10-24T13:40:09.732Z,101574.94
2022-10-24T13:42:42.197Z,101571.75
2022-10-24T13:45:21.643Z,101576.91
2022-10-24T13:48:16.337Z,101577.69
2022-10-24T13:51:03.232Z,101574.44
2022-10-24T13:53:37.497Z,101568.16
2022-10-24T13:56:13.636Z,101570.03
2022-10-24T13:58:44.698Z,101565.53
2022-10-24T14:01:21.623Z,101567.59
2022-10-24T14:03:50.373Z,101568.63
2022-10-24T14:06:25.041Z,101571.19
2022-10-24T14:09:04.225Z,101576.44
2022-10-24T14:11:33.702Z,101569.47
2022-10-24T14:14:06.499Z,101559.94
2022-10-24T14:16:35.462Z,101565.81
2022-10-24T14:19:18.784Z,101561.72
2022-10-24T14:21:49.704Z,101559.19
2022-10-24T14:24:20.209Z,101561.09
2022-10-24T14:26:51.629Z,101562.88
2022-10-24T14:29:32.914Z,101558.75
2022-10-24T14:32:07.895Z,101559.66
2022-10-24T14:34:37.505Z,101555.41
2022-10-24T14:37:08.842Z,101558.19
2022-10-24T14:39:38.530Z,101556.53
2022-10-24T14:42:13.723Z,101562.72
2022-10-24T14:44:44.100Z,101558.53
2022-10-24T14:47:22.822Z,101558.72
2022-10-24T14:49:51.039Z,101557.03
2022-10-24T14:52:26.363Z,101558.84
2022-10-24T14:54:58.864Z,101568.59
2022-10-24T14:57:27.580Z,101566.16
2022-10-24T14:59:57.427Z,101559.13
2022-10-24T15:02:43.199Z,101561.19
2022-10-24T15:05:19.951Z,101556.06
2022-10-24T15:08:21.788Z,101564.00
2022-10-24T15:11:02.483Z,101567.00
2022-10-24T15:13:33.833Z,101567.13
2022-10-24T15:16:01.641Z,101563.91
2022-10-24T15:18:42.042Z,101562.28
2022-10-24T15:21:20.034Z,101561.56
2022-10-24T15:23:57.312Z,101568.59
2022-10-24T15:26:34.418Z,101570.63
2022-10-24T15:29:02.047Z,101564.66
2022-10-24T15:31:33.004Z,101567.59
2022-10-24T15:34:00.737Z,101563.31
2022-10-24T15:36:34.802Z,101573.06
2022-10-24T15:39:24.724Z,101570.47
2022-10-24T15:41:53.262Z,101570.59
2022-10-24T15:44:29.420Z,101570.75
2022-10-24T15:46:57.476Z,101567.38
2022-10-24T15:49:25.041Z,101570.91
2022-10-24T15:51:52.620Z,101576.31
2022-10-24T15:54:21.920Z,101578.34
2022-10-24T15:56:50.112Z,101568.63
2022-10-24T15:59:20.054Z,101576.44
2022-10-24T16:02:03.127Z,101572.16
2022-10-24T16:04:33.959Z,101573.94
2022-10-24T16:07:02.527Z,101567.81
2022-10-24T16:09:31.388Z,101571.13
2022-10-24T16:11:59.252Z,101572.69
2022-10-24T16:14:27.389Z,101576.13
2022-10-24T16:16:55.310Z,101584.28
2022-10-24T16:19:25.822Z,101575.53
2022-10-24T16:21:58.920Z,101576.31
2022-10-24T16:24:27.773Z,101573.63
2022-10-24T16:26:55.784Z,101565.88
2022-10-24T16:29:23.389Z,101572.34
2022-10-24T16:31:50.898Z,101569.53
2022-10-24T16:34:18.605Z,101567.78
2022-10-24T16:36:46.221Z,101572.16
2022-10-24T16:39:16.339Z,101565.88
2022-10-24T16:41:46.323Z,101566.19
2022-10-24T16:44:15.094Z,101578.47
2022-10-24T16:46:42.826Z,101580.31
2022-10-24T16:49:10.475Z,101576.13
2022-10-24T16:51:41.776Z,101577.81
2022-10-24T16:54:11.826Z,101570.88
2022-10-24T16:56:39.544Z,101572.91
2022-10-24T16:59:10.302Z,101570.97
2022-10-24T17:01:40.945Z,101570.75
2022-10-24T17:04:09.033Z,101569.00
2022-10-24T17:06:36.762Z,101564.84
2022-10-24T17:09:04.665Z,101574.72
2022-10-24T17:11:44.864Z,101575.66
2022-10-24T17:14:14.363Z,101575.53
2022-10-24T17:16:43.802Z,101580.91
2022-10-24T17:19:16.501Z,101582.03
2022-10-24T17:21:47.256Z,101587.22
2022-10-24T17:24:19.625Z,101582.88
2022-10-24T17:26:48.858Z,101581.13
2022-10-24T17:29:22.287Z,101583.78
2022-10-24T17:31:50.109Z,101591.66
2022-10-24T17:34:18.946Z,101589.13
2022-10-24T17:37:00.747Z,101584.03
2022-10-24T17:39:32.855Z,101588.50
2022-10-24T17:42:00.584Z,101579.94
2022-10-24T17:44:28.589Z,101590.56
2022-10-24T17:46:58.197Z,101583.50
2022-10-24T17:49:26.441Z,101586.66
2022-10-24T17:51:53.961Z,101588.44
2022-10-24T17:54:22.266Z,101585.06
2022-10-24T17:56:50.259Z,101581.53
2022-10-24T17:59:18.295Z,101591.13
2022-10-24T18:01:46.277Z,101587.78
2022-10-24T18:04:14.867Z,101581.94
2022-10-24T18:06:43.416Z,101577.03
2022-10-24T18:09:12.022Z,101582.31
2022-10-24T18:11:40.138Z,101572.06
2022-10-24T18:14:08.154Z,101565.84
2022-10-24T18:16:38.403Z,101566.06
2022-10-24T18:19:07.559Z,101566.81
2022-10-24T18:21:35.522Z,101566.69
2022-10-24T18:24:06.045Z,101566.13
2022-10-24T18:26:33.826Z,101563.56
2022-10-24T18:29:01.704Z,101559.34
2022-10-24T18:31:30.864Z,101559.09
2022-10-24T18:34:03.672Z,101561.56
2022-10-24T18:36:37.042Z,101549.22
2022-10-24T18:39:05.656Z,101552.03
2022-10-24T18:41:54.327Z,101547.56
2022-10-24T18:44:30.617Z,101551.59
2022-10-24T18:47:03.626Z,101544.41
2022-10-24T18:49:33.931Z,101543.50
2022-10-24T18:52:14.804Z,101533.91
2022-10-24T18:55:02.383Z,101526.66
2022-10-24T18:57:34.486Z,101525.41
2022-10-24T19:00:03.114Z,101513.50
2022-10-24T19:03:05.065Z,101514.06
2022-10-24T19:05:43.163Z,101517.91
2022-10-24T19:08:22.008Z,101516.38
2022-10-24T19:10:56.138Z,101509.31
2022-10-24T19:13:25.478Z,101510.47
2022-10-24T19:16:00.271Z,101508.94
2022-10-24T19:18:30.496Z,101512.22
2022-10-24T19:20:59.348Z,101509.97
2022-10-24T19:23:27.557Z,101515.25
2022-10-24T19:25:55.278Z,101510.75
2022-10-24T19:28:23.053Z,101526.38
2022-10-24T19:30:50.918Z,101512.34
2022-10-24T19:33:18.854Z,101507.75
2022-10-24T19:35:49.101Z,101502.59
2022-10-24T19:38:18.298Z,101507.56
2022-10-24T19:40:52.056Z,101498.69
2022-10-24T19:43:24.808Z,101502.47
2022-10-24T19:48:44.120Z,101499.22
2022-10-24T19:51:13.254Z,101497.25
2022-10-24T19:53:43.323Z,101504.28
2022-10-24T19:56:20.063Z,101499.03
2022-10-24T19:58:50.226Z,101499.03
2022-10-24T20:01:21.351Z,101501.88
2022-10-24T20:03:51.300Z,101491.44
2022-10-24T20:06:19.863Z,101497.75
2022-10-24T20:08:49.040Z,101493.41
2022-10-24T20:11:17.584Z,101502.78
2022-10-24T20:13:45.234Z,101503.84
2022-10-24T20:16:13.514Z,101499.25
2022-10-24T20:18:43.732Z,101494.06
2022-10-24T20:21:15.106Z,101484.38
2022-10-24T20:23:42.875Z,101483.78
2022-10-24T20:26:21.986Z,101489.00
2022-10-24T20:28:50.974Z,101483.69
2022-10-24T20:31:25.163Z,101476.63
2022-10-24T20:33:53.532Z,101479.88
2022-10-24T20:36:21.592Z,101476.22
2022-10-24T20:38:49.163Z,101481.81
2022-10-24T20:41:16.697Z,101480.13
2022-10-24T20:43:44.687Z,101477.50
2022-10-24T20:46:12.372Z,101469.06
2022-10-24T20:48:40.240Z,101482.28
2022-10-24T20:51:12.884Z,101471.00
2022-10-24T20:53:41.163Z,101476.91
2022-10-24T20:56:11.580Z,101471.75
2022-10-24T20:58:41.150Z,101470.81
2022-10-24T21:01:18.243Z,101469.13
2022-10-24T21:03:45.934Z,101479.16
2022-10-24T21:06:16.434Z,101471.47
2022-10-24T21:08:45.145Z,101472.16
2022-10-24T21:11:15.494Z,101471.19
2022-10-24T21:13:43.731Z,101470.44
2022-10-24T21:16:14.657Z,101469.22
2022-10-24T21:18:42.460Z,101460.84
2022-10-24T21:21:12.781Z,101462.84
2022-10-24T21:23:40.389Z,101468.16
2022-10-24T21:26:11.250Z,101468.09
2022-10-24T21:28:39.002Z,101468.56
2022-10-24T21:31:18.126Z,101460.53
2022-10-24T21:33:46.498Z,101465.69
2022-10-24T21:36:19.650Z,101471.75
2022-10-24T21:38:52.710Z,101460.13
2022-10-24T21:41:21.784Z,101461.81
2022-10-24T21:43:53.363Z,101459.41
2022-10-24T21:46:23.441Z,101458.59
2022-10-24T21:48:52.422Z,101457.56
2022-10-24T21:51:32.882Z,101460.19
2022-10-24T21:54:15.148Z,101458.53
2022-10-24T21:56:42.796Z,101458.59
2022-10-24T21:59:18.768Z,101460.97
2022-10-24T22:01:47.553Z,101467.16
2022-10-24T22:04:16.275Z,101463.53
2022-10-24T22:06:44.552Z,101465.91
2022-10-24T22:09:17.043Z,101457.09
2022-10-24T22:11:45.078Z,101458.88
2022-10-24T22:14:15.008Z,101458.34
2022-10-24T22:16:43.192Z,101458.47
2022-10-24T22:19:11.962Z,101451.53
2022-10-24T22:21:44.051Z,101458.41
2022-10-24T22:24:15.320Z,101456.06
2022-10-24T22:26:43.323Z,101448.16
2022-10-24T22:29:14.487Z,101447.22
2022-10-24T22:31:42.661Z,101445.88
2022-10-24T22:34:32.511Z,101440.06
2022-10-24T22:37:12.948Z,101433.06
2022-10-24T22:39:41.355Z,101435.47
2022-10-24T22:42:12.395Z,101431.97
2022-10-24T22:44:42.890Z,101428.47
2022-10-24T22:47:22.236Z,101426.56
2022-10-24T22:50:07.686Z,101417.91
2022-10-24T22:52:35.630Z,101424.50
2022-10-24T22:55:04.091Z,101424.69
2022-10-24T22:57:32.450Z,101421.22
2022-10-24T23:00:00.366Z,101417.66
2022-10-24T23:02:38.233Z,101416.81
2022-10-24T23:05:11.003Z,101410.00
2022-10-24T23:07:47.743Z,101409.00
2022-10-24T23:10:23.369Z,101402.03
2022-10-24T23:12:51.666Z,101395.13
2022-10-24T23:15:21.317Z,101389.28
2022-10-24T23:17:49.832Z,101388.44
2022-10-24T23:20:29.701Z,101384.28
2022-10-24T23:23:09.355Z,101385.91
2022-10-24T23:25:52.465Z,101384.19
2022-10-24T23:29:11.932Z,101387.50
2022-10-24T23:31:39.893Z,101384.69
2022-10-24T23:34:09.720Z,101372.47
2022-10-24T23:36:44.746Z,101379.50
2022-10-24T23:39:13.545Z,101379.44
2022-10-24T23:41:41.835Z,101367.19
2022-10-24T23:44:11.027Z,101363.72
2022-10-24T23:46:46.372Z,101361.03
2022-10-24T23:49:16.523Z,101365.91
2022-10-24T23:51:53.063Z,101354.56
2022-10-24T23:54:25.844Z,101363.34
2022-10-24T23:56:53.943Z,101366.16
2022-10-24T23:59:21.639Z,101363.72
